createdAt,value
2022-11-22T00:00:21.642Z,6.55
2022-11-22T00:02:48.315Z,5.05
2022-11-22T00:05:14.843Z,6.32
2022-11-22T00:07:41.774Z,5.35
2022-11-22T00:10:09.716Z,6.07
2022-11-22T00:12:36.429Z,7.25
2022-11-22T00:15:03.575Z,5.57
2022-11-22T00:17:31.322Z,7.28
2022-11-22T00:19:57.800Z,4.47
2022-11-22T00:22:24.386Z,6.32
2022-11-22T00:24:52.059Z,5.50
2022-11-22T00:27:19.671Z,3.78
2022-11-22T00:29:46.199Z,3.25
2022-11-22T00:32:12.889Z,4.38
2022-11-22T00:34:39.298Z,8.23
2022-11-22T00:37:05.745Z,6.45
2022-11-22T00:39:32.531Z,4.10
2022-11-22T00:41:59.162Z,6.05
2022-11-22T00:44:25.686Z,4.68
2022-11-22T00:46:52.256Z,5.57
2022-11-22T00:49:18.731Z,5.43
2022-11-22T00:51:45.199Z,4.30
2022-11-22T00:54:11.684Z,5.60
2022-11-22T00:56:38.126Z,4.38
2022-11-22T00:59:04.597Z,5.00
2022-11-22T01:01:31.028Z,4.63
2022-11-22T01:03:57.488Z,5.50
2022-11-22T01:06:23.971Z,4.13
2022-11-22T01:08:50.500Z,4.03
2022-11-22T01:11:18.458Z,4.95
2022-11-22T01:13:44.997Z,6.20
2022-11-22T01:16:12.236Z,5.38
2022-11-22T01:18:38.741Z,4.85
2022-11-22T01:21:05.962Z,4.80
2022-11-22T01:23:33.339Z,3.92
2022-11-22T01:25:59.948Z,4.63
2022-11-22T01:28:27.235Z,6.75
2022-11-22T01:30:54.305Z,6.10
2022-11-22T01:33:21.235Z,6.22
2022-11-22T01:35:48.001Z,6.10
2022-11-22T01:38:14.441Z,3.92
2022-11-22T01:40:40.858Z,4.75
2022-11-22T01:43:16.567Z,3.08
2022-11-22T01:45:45.642Z,3.88
2022-11-22T01:48:11.950Z,5.28
2022-11-22T01:50:41.543Z,3.85
2022-11-22T01:53:11.163Z,4.65
2022-11-22T01:55:37.686Z,3.17
2022-11-22T01:58:04.234Z,4.18
2022-11-22T02:00:30.631Z,4.75
2022-11-22T02:02:59.884Z,4.05
2022-11-22T02:05:30.355Z,4.85
2022-11-22T02:08:05.945Z,3.83
2022-11-22T02:10:35.572Z,4.95
2022-11-22T02:13:02.440Z,5.50
2022-11-22T02:15:28.838Z,4.07
2022-11-22T02:17:58.867Z,3.83
2022-11-22T02:20:25.397Z,5.15
2022-11-22T02:22:58.316Z,5.65
2022-11-22T02:25:36.426Z,6.55
2022-11-22T02:28:06.373Z,4.47
2022-11-22T02:30:33.040Z,6.97
2022-11-22T02:32:59.456Z,7.82
2022-11-22T02:35:27.793Z,6.35
2022-11-22T02:37:59.813Z,7.43
2022-11-22T02:40:28.206Z,3.95
2022-11-22T02:43:01.674Z,6.73
2022-11-22T02:45:28.150Z,9.65
2022-11-22T02:48:04.771Z,7.75
2022-11-22T02:50:31.196Z,7.35
2022-11-22T02:52:57.627Z,4.93
2022-11-22T02:55:24.052Z,5.88
2022-11-22T02:57:50.454Z,5.90
2022-11-22T03:00:16.935Z,6.97
2022-11-22T03:02:43.362Z,5.22
2022-11-22T03:05:09.805Z,5.75
2022-11-22T03:07:36.282Z,6.00
2022-11-22T03:10:02.940Z,7.30
2022-11-22T03:12:29.338Z,7.00
2022-11-22T03:14:55.776Z,5.95
2022-11-22T03:17:22.181Z,8.05
2022-11-22T03:19:48.612Z,7.78
2022-11-22T03:22:15.148Z,6.60
2022-11-22T03:24:41.570Z,4.78
2022-11-22T03:27:07.997Z,9.05
2022-11-22T03:29:34.402Z,6.13
2022-11-22T03:32:00.871Z,6.43
2022-11-22T03:34:27.310Z,11.95
2022-11-22T03:36:53.743Z,11.15
2022-11-22T03:39:20.195Z,9.57
2022-11-22T03:41:46.621Z,6.88
2022-11-22T03:44:13.009Z,9.30
2022-11-22T03:46:39.395Z,10.43
2022-11-22T03:49:05.810Z,9.90
2022-11-22T03:51:32.258Z,10.13
2022-11-22T03:53:58.647Z,6.65
2022-11-22T03:56:25.040Z,8.98
2022-11-22T03:58:51.482Z,8.75
2022-11-22T04:01:18.016Z,10.68
2022-11-22T04:03:44.484Z,10.40
2022-11-22T04:06:10.917Z,10.43
2022-11-22T04:08:37.485Z,13.27
2022-11-22T04:11:04.012Z,16.08
2022-11-22T04:13:49.044Z,13.43
2022-11-22T04:16:15.482Z,14.73
2022-11-22T04:18:41.930Z,10.95
2022-11-22T04:21:27.088Z,11.00
2022-11-22T04:24:13.795Z,13.45
2022-11-22T04:26:40.257Z,9.85
2022-11-22T04:29:09.980Z,14.18
2022-11-22T04:31:55.621Z,14.13
2022-11-22T04:34:22.305Z,15.00
2022-11-22T04:36:48.763Z,10.57
2022-11-22T04:39:15.186Z,12.70
2022-11-22T04:41:41.583Z,13.10
2022-11-22T04:44:27.783Z,13.82
2022-11-22T04:46:54.330Z,13.82
2022-11-22T04:49:20.831Z,11.27
2022-11-22T04:52:05.987Z,12.50
2022-11-22T04:54:32.738Z,16.20
2022-11-22T04:56:59.166Z,13.10
2022-11-22T04:59:25.619Z,16.08
2022-11-22T05:01:52.691Z,15.10
2022-11-22T05:04:19.220Z,11.63
2022-11-22T05:06:45.637Z,16.38
2022-11-22T05:09:12.139Z,13.73
2022-11-22T05:11:38.691Z,17.15
2022-11-22T05:14:05.175Z,13.32
2022-11-22T05:16:31.581Z,16.80
2022-11-22T05:19:00.830Z,17.95
2022-11-22T05:21:28.590Z,14.52
2022-11-22T05:23:55.362Z,10.80
2022-11-22T05:26:26.250Z,14.60
2022-11-22T05:28:53.117Z,12.63
2022-11-22T05:31:24.408Z,16.58
2022-11-22T05:33:52.463Z,18.77
2022-11-22T05:36:19.416Z,16.67
2022-11-22T05:38:45.974Z,16.55
2022-11-22T05:41:13.872Z,19.75
2022-11-22T05:43:41.214Z,12.27
2022-11-22T05:46:10.222Z,16.17
2022-11-22T05:48:38.308Z,16.70
2022-11-22T05:51:10.724Z,18.60
2022-11-22T05:53:37.972Z,18.95
2022-11-22T05:56:06.073Z,15.00
2022-11-22T05:58:33.201Z,18.35
2022-11-22T06:01:08.080Z,19.85
2022-11-22T06:03:35.651Z,17.25
2022-11-22T06:06:02.648Z,14.50
2022-11-22T06:08:30.300Z,18.77
2022-11-22T06:10:59.169Z,15.55
2022-11-22T06:13:25.863Z,13.05
2022-11-22T06:15:52.305Z,13.07
2022-11-22T06:18:18.698Z,13.77
2022-11-22T06:20:45.103Z,14.40
2022-11-22T06:23:11.582Z,13.45
2022-11-22T06:25:37.973Z,14.07
2022-11-22T06:28:04.454Z,13.80
2022-11-22T06:30:30.941Z,11.93
2022-11-22T06:32:57.611Z,14.80
2022-11-22T06:35:24.125Z,9.80
2022-11-22T06:37:50.521Z,12.88
2022-11-22T06:40:19.178Z,14.40
2022-11-22T06:42:45.791Z,13.68
2022-11-22T06:45:12.415Z,17.52
2022-11-22T06:47:38.901Z,13.63
2022-11-22T06:50:05.646Z,14.48
2022-11-22T06:52:32.048Z,11.23
2022-11-22T06:54:58.500Z,11.90
2022-11-22T06:57:24.917Z,9.95
2022-11-22T06:59:51.345Z,15.80
2022-11-22T07:02:17.733Z,14.40
2022-11-22T07:05:02.685Z,15.50
2022-11-22T07:07:30.748Z,13.15
2022-11-22T07:09:57.232Z,17.58
2022-11-22T07:12:23.638Z,10.68
2022-11-22T07:14:50.156Z,8.98
2022-11-22T07:17:16.568Z,15.32
2022-11-22T07:19:43.012Z,12.63
2022-11-22T07:22:09.511Z,13.98
2022-11-22T07:24:35.999Z,12.52
2022-11-22T07:27:02.479Z,10.35
2022-11-22T07:29:29.120Z,15.52
2022-11-22T07:31:55.658Z,13.63
2022-11-22T07:34:22.067Z,9.57
2022-11-22T07:36:48.533Z,14.82
2022-11-22T07:39:14.957Z,14.57
2022-11-22T07:41:41.355Z,14.23
2022-11-22T07:44:07.900Z,14.02
2022-11-22T07:46:34.312Z,12.32
2022-11-22T07:49:01.742Z,10.30
2022-11-22T07:51:28.800Z,14.93
2022-11-22T07:53:56.115Z,16.88
2022-11-22T07:56:23.092Z,14.63
2022-11-22T07:58:49.507Z,12.45
2022-11-22T08:01:17.650Z,13.40
2022-11-22T08:03:44.845Z,10.70
2022-11-22T08:06:12.756Z,12.95
2022-11-22T08:08:39.470Z,14.60
2022-11-22T08:11:06.624Z,16.55
2022-11-22T08:13:33.851Z,10.93
2022-11-22T08:16:07.329Z,9.90
2022-11-22T08:18:34.947Z,13.73
2022-11-22T08:21:05.796Z,15.13
2022-11-22T08:23:32.370Z,15.68
2022-11-22T08:25:59.686Z,11.95
2022-11-22T08:28:26.487Z,13.57
2022-11-22T08:30:59.570Z,12.00
2022-11-22T08:33:25.980Z,9.85
2022-11-22T08:35:52.419Z,12.00
2022-11-22T08:38:18.863Z,16.65
2022-11-22T08:40:45.416Z,13.27
2022-11-22T08:43:11.892Z,12.23
2022-11-22T08:45:39.137Z,13.13
2022-11-22T08:48:05.747Z,14.35
2022-11-22T08:50:32.161Z,8.70
2022-11-22T08:53:00.625Z,14.05
2022-11-22T08:55:28.155Z,8.23
2022-11-22T08:57:58.706Z,10.80
2022-11-22T09:00:28.650Z,16.38
2022-11-22T09:02:58.189Z,9.25
2022-11-22T09:05:24.650Z,10.75
2022-11-22T09:10:37.467Z,10.95
2022-11-22T09:13:03.952Z,12.38
2022-11-22T09:15:30.484Z,10.73
2022-11-22T09:18:01.906Z,10.77
2022-11-22T09:20:28.449Z,11.60
2022-11-22T09:22:54.963Z,10.70
2022-11-22T09:25:21.410Z,14.00
2022-11-22T09:27:47.924Z,10.23
2022-11-22T09:30:14.716Z,10.07
2022-11-22T09:32:43.466Z,11.52
2022-11-22T09:35:09.902Z,15.85
2022-11-22T09:37:36.444Z,11.18
2022-11-22T09:40:03.174Z,11.48
2022-11-22T09:42:38.622Z,11.95
2022-11-22T09:45:33.242Z,12.38
2022-11-22T09:48:20.978Z,13.07
2022-11-22T09:51:03.254Z,14.95
2022-11-22T09:53:43.042Z,12.93
2022-11-22T09:56:12.617Z,12.20
2022-11-22T09:58:51.484Z,10.32
2022-11-22T10:01:27.836Z,14.55
2022-11-22T10:04:10.902Z,11.48
2022-11-22T10:06:44.051Z,13.00
2022-11-22T10:09:34.222Z,13.70
2022-11-22T10:12:03.343Z,11.55
2022-11-22T10:14:41.984Z,12.00
2022-11-22T10:17:53.952Z,14.63
2022-11-22T10:20:28.341Z,9.63
2022-11-22T10:22:55.794Z,13.80
2022-11-22T10:25:30.660Z,10.88
2022-11-22T10:28:01.148Z,10.25
2022-11-22T10:30:34.778Z,10.25
2022-11-22T10:33:18.292Z,10.35
2022-11-22T10:36:04.334Z,8.02
2022-11-22T10:38:53.410Z,12.00
2022-11-22T10:41:33.811Z,10.77
2022-11-22T10:44:30.769Z,12.95
2022-11-22T10:47:09.103Z,9.05
2022-11-22T10:49:47.084Z,9.38
2022-11-22T10:52:22.547Z,9.93
2022-11-22T10:55:13.614Z,9.18
2022-11-22T10:57:55.053Z,11.45
2022-11-22T11:00:24.976Z,12.32
2022-11-22T11:03:12.219Z,8.65
2022-11-22T11:09:36.159Z,14.05
2022-11-22T11:11:32.694Z,9.45
2022-11-22T11:14:12.746Z,9.63
2022-11-22T11:16:39.856Z,8.55
2022-11-22T11:19:20.572Z,12.52
2022-11-22T11:21:56.066Z,11.18
2022-11-22T11:24:24.238Z,11.02
2022-11-22T11:26:55.306Z,12.25
2022-11-22T11:29:37.437Z,9.60
2022-11-22T11:32:13.224Z,9.18
2022-11-22T11:34:51.205Z,6.28
2022-11-22T11:37:38.081Z,7.63
2022-11-22T11:40:06.632Z,5.40
2022-11-22T11:42:34.530Z,6.85
2022-11-22T11:45:21.765Z,10.18
2022-11-22T11:47:48.217Z,9.80
2022-11-22T11:50:24.231Z,7.40
2022-11-22T11:52:57.203Z,9.55
2022-11-22T11:55:23.862Z,11.35
2022-11-22T11:57:51.477Z,10.10
2022-11-22T12:00:26.204Z,8.90
2022-11-22T12:02:58.656Z,10.45
2022-11-22T12:05:30.841Z,9.15
2022-11-22T12:07:57.449Z,8.70
2022-11-22T12:10:47.293Z,9.13
2022-11-22T12:13:21.457Z,10.27
2022-11-22T12:15:55.683Z,10.60
2022-11-22T12:18:49.906Z,8.07
2022-11-22T12:21:26.631Z,9.88
2022-11-22T12:27:02.474Z,8.55
2022-11-22T12:29:30.424Z,6.88
2022-11-22T12:32:06.510Z,8.75
2022-11-22T12:34:42.697Z,9.40
2022-11-22T12:37:19.000Z,5.78
2022-11-22T12:39:48.154Z,7.50
2022-11-22T12:42:23.018Z,3.35
2022-11-22T12:44:54.372Z,7.30
2022-11-22T12:47:24.481Z,8.43
2022-11-22T12:50:00.483Z,6.47
2022-11-22T12:52:33.110Z,6.15
2022-11-22T12:55:04.021Z,13.38
2022-11-22T12:57:48.768Z,7.28
2022-11-22T13:00:18.973Z,6.70
2022-11-22T13:02:59.067Z,6.15
2022-11-22T13:05:29.458Z,8.02
2022-11-22T13:08:18.837Z,7.45
2022-11-22T13:10:47.170Z,7.40
2022-11-22T13:13:22.786Z,7.65
2022-11-22T13:15:51.016Z,8.98
2022-11-22T13:18:17.897Z,8.30
2022-11-22T13:21:19.627Z,5.85
2022-11-22T13:24:18.454Z,6.32
2022-11-22T13:26:54.472Z,4.28
2022-11-22T13:29:24.078Z,12.30
2022-11-22T13:32:12.964Z,6.20
2022-11-22T13:34:42.303Z,14.13
2022-11-22T13:37:14.850Z,5.95
2022-11-22T13:39:44.805Z,8.05
2022-11-22T13:42:15.172Z,9.68
2022-11-22T13:44:56.902Z,9.68
2022-11-22T13:47:23.231Z,8.82
2022-11-22T13:49:53.817Z,8.07
2022-11-22T13:52:20.596Z,7.57
2022-11-22T13:54:46.992Z,10.15
2022-11-22T13:57:36.187Z,8.75
2022-11-22T14:00:14.924Z,5.55
2022-11-22T14:02:43.789Z,8.55
2022-11-22T14:05:26.684Z,8.77
2022-11-22T14:07:54.645Z,5.43
2022-11-22T14:10:26.957Z,7.22
2022-11-22T14:13:11.264Z,6.15
2022-11-22T14:15:51.793Z,5.38
2022-11-22T14:18:42.164Z,8.85
2022-11-22T14:21:23.490Z,12.75
2022-11-22T14:24:15.272Z,10.95
2022-11-22T14:26:49.666Z,6.00
2022-11-22T14:29:43.461Z,6.13
2022-11-22T14:32:18.645Z,6.05
2022-11-22T14:35:03.379Z,8.18
2022-11-22T14:37:31.590Z,7.63
2022-11-22T14:40:07.149Z,12.35
2022-11-22T14:42:54.623Z,6.63
2022-11-22T14:45:23.402Z,5.82
2022-11-22T14:47:53.061Z,6.80
2022-11-22T14:50:33.527Z,7.25
2022-11-22T14:53:19.200Z,7.45
2022-11-22T14:55:46.030Z,7.75
2022-11-22T14:58:15.873Z,4.10
2022-11-22T15:01:14.911Z,5.75
2022-11-22T15:09:12.785Z,5.93
2022-11-22T15:09:14.565Z,18.02
2022-11-22T15:10:15.910Z,7.45
2022-11-22T15:13:15.210Z,7.13
2022-11-22T15:59:01.879Z,3.90
2022-11-22T16:01:28.630Z,4.63
2022-11-22T16:03:58.819Z,2.10
2022-11-22T16:06:26.885Z,4.32
2022-11-22T16:08:57.433Z,2.25
2022-11-22T16:11:27.640Z,4.68
2022-11-22T16:13:54.070Z,3.78
2022-11-22T16:16:27.253Z,6.70
2022-11-22T16:18:54.366Z,3.97
2022-11-22T16:21:28.877Z,7.50
2022-11-22T16:24:17.992Z,2.53
2022-11-22T16:26:56.162Z,2.53
2022-11-22T16:29:31.930Z,7.20
2022-11-22T16:32:15.009Z,4.03
2022-11-22T16:34:43.189Z,4.43
2022-11-22T16:37:39.038Z,6.05
2022-11-22T16:40:08.297Z,4.05
2022-11-22T16:42:35.577Z,3.83
2022-11-22T16:45:04.226Z,4.28
2022-11-22T16:47:31.093Z,4.93
2022-11-22T16:49:57.684Z,3.92
2022-11-22T16:52:24.711Z,4.05
2022-11-22T16:54:51.126Z,3.50
2022-11-22T16:57:17.602Z,2.75
2022-11-22T16:59:44.058Z,3.65
2022-11-22T17:02:16.002Z,3.83
2022-11-22T17:04:44.954Z,3.45
2022-11-22T17:07:12.621Z,3.42
2022-11-22T17:09:39.183Z,4.50
2022-11-22T17:12:14.547Z,2.97
2022-11-22T17:14:40.950Z,6.13
2022-11-22T17:17:11.274Z,4.30
2022-11-22T17:19:52.557Z,7.05
2022-11-22T17:22:20.013Z,3.67
2022-11-22T17:24:46.541Z,5.13
2022-11-22T17:27:16.343Z,3.08
2022-11-22T17:29:50.925Z,6.20
2022-11-22T17:32:17.487Z,3.38
2022-11-22T17:34:43.979Z,4.05
2022-11-22T17:37:13.842Z,4.28
2022-11-22T17:39:40.594Z,4.15
2022-11-22T17:42:07.393Z,4.95
2022-11-22T17:44:34.044Z,4.72
2022-11-22T17:47:00.586Z,3.30
2022-11-22T17:49:27.296Z,3.97
2022-11-22T17:51:53.869Z,5.35
2022-11-22T17:54:20.280Z,5.30
2022-11-22T17:56:46.726Z,3.75
2022-11-22T17:59:13.193Z,3.85
2022-11-22T18:01:39.748Z,3.78
2022-11-22T18:04:06.239Z,4.20
2022-11-22T18:06:32.715Z,4.30
2022-11-22T18:09:00.201Z,4.28
2022-11-22T18:11:26.759Z,2.88
2022-11-22T18:13:53.252Z,5.38
2022-11-22T18:16:19.828Z,4.10
2022-11-22T18:19:01.792Z,6.00
2022-11-22T18:21:29.984Z,3.88
2022-11-22T18:23:58.405Z,4.93
2022-11-22T18:26:41.381Z,4.18
2022-11-22T18:31:55.483Z,6.00
2022-11-22T18:34:22.797Z,4.53
2022-11-22T18:36:55.189Z,3.40
2022-11-22T18:39:22.828Z,2.28
2022-11-22T18:41:49.306Z,3.20
2022-11-22T18:44:15.758Z,3.63
2022-11-22T18:46:42.431Z,4.00
2022-11-22T18:49:08.959Z,2.75
2022-11-22T18:51:35.689Z,3.88
2022-11-22T18:54:02.126Z,3.90
2022-11-22T18:56:28.654Z,2.75
2022-11-22T18:58:55.115Z,4.60
2022-11-22T19:01:22.806Z,4.68
2022-11-22T19:03:49.464Z,6.00
2022-11-22T19:06:17.775Z,4.07
2022-11-22T19:08:47.504Z,3.45
2022-11-22T19:11:15.530Z,6.63
2022-11-22T19:13:43.317Z,3.95
2022-11-22T19:16:21.643Z,6.03
2022-11-22T19:18:48.616Z,6.55
2022-11-22T19:21:20.302Z,6.82
2022-11-22T19:23:47.056Z,4.13
2022-11-22T19:26:15.425Z,5.78
2022-11-22T19:28:42.161Z,6.00
2022-11-22T19:31:24.293Z,5.65
2022-11-22T19:33:50.814Z,7.43
2022-11-22T19:36:31.853Z,5.88
2022-11-22T19:38:59.093Z,7.35
2022-11-22T19:41:25.519Z,5.78
2022-11-22T19:43:52.188Z,7.50
2022-11-22T19:46:21.910Z,7.15
2022-11-22T19:48:52.874Z,7.35
2022-11-22T19:51:19.941Z,8.52
2022-11-22T19:53:46.453Z,10.43
2022-11-22T19:56:15.518Z,7.53
2022-11-22T19:58:43.404Z,5.47
2022-11-22T20:01:14.270Z,7.60
2022-11-22T20:03:42.435Z,11.05
2022-11-22T20:06:10.838Z,9.02
2022-11-22T20:08:38.648Z,5.88
2022-11-22T20:11:10.379Z,6.38
2022-11-22T20:13:38.990Z,8.73
2022-11-22T20:16:09.124Z,8.15
2022-11-22T20:18:35.539Z,6.30
2022-11-22T20:21:03.722Z,10.57
2022-11-22T20:23:31.047Z,6.30
2022-11-22T20:26:21.042Z,9.77
2022-11-22T20:28:48.450Z,10.07
2022-11-22T20:31:19.347Z,8.63
2022-11-22T20:33:47.691Z,10.10
2022-11-22T20:36:22.847Z,12.07
2022-11-22T20:38:50.641Z,10.45
2022-11-22T20:41:19.169Z,8.02
2022-11-22T20:43:46.279Z,7.80
2022-11-22T20:46:13.716Z,13.48
2022-11-22T20:48:41.802Z,12.15
2022-11-22T20:51:15.908Z,8.95
2022-11-22T20:53:42.795Z,8.68
2022-11-22T20:56:09.906Z,8.38
2022-11-22T20:58:36.639Z,8.10
2022-11-22T21:01:07.969Z,9.32
2022-11-22T21:03:34.644Z,9.32
2022-11-22T21:06:02.067Z,10.75
2022-11-22T21:08:28.696Z,6.85
2022-11-22T21:11:12.026Z,9.15
2022-11-22T21:13:39.158Z,9.15
2022-11-22T21:16:22.165Z,8.95
2022-11-22T21:18:57.889Z,9.85
2022-11-22T21:21:25.379Z,11.38
2022-11-22T21:23:59.353Z,10.23
2022-11-22T21:26:26.495Z,11.00
2022-11-22T21:28:53.542Z,8.35
2022-11-22T21:31:21.359Z,8.38
2022-11-22T21:33:47.825Z,9.30
2022-11-22T21:36:14.276Z,8.55
2022-11-22T21:38:40.861Z,12.32
2022-11-22T21:41:38.200Z,10.60
2022-11-22T21:43:57.419Z,10.18
2022-11-22T21:46:25.152Z,6.57
2022-11-22T21:48:51.786Z,8.88
2022-11-22T21:51:18.237Z,8.38
2022-11-22T21:53:44.700Z,9.10
2022-11-22T21:56:11.192Z,8.25
2022-11-22T21:58:37.627Z,9.45
2022-11-22T22:01:09.506Z,9.70
2022-11-22T22:03:40.070Z,7.00
2022-11-22T22:06:07.010Z,8.30
2022-11-22T22:08:33.893Z,9.95
2022-11-22T22:11:02.333Z,11.52
2022-11-22T22:13:30.591Z,12.03
2022-11-22T22:15:58.397Z,7.35
2022-11-22T22:18:33.310Z,8.43
2022-11-22T22:21:08.527Z,7.35
2022-11-22T22:23:36.686Z,10.45
2022-11-22T22:26:05.195Z,11.27
2022-11-22T22:28:33.651Z,8.37
2022-11-22T22:31:22.555Z,8.17
2022-11-22T22:33:53.880Z,8.65
2022-11-22T22:36:20.987Z,14.20
2022-11-22T22:38:48.196Z,10.43
2022-11-22T22:41:14.789Z,8.45
2022-11-22T22:43:43.543Z,8.70
2022-11-22T22:46:29.190Z,7.57
2022-11-22T22:48:56.497Z,9.60
2022-11-22T22:51:32.694Z,9.25
2022-11-22T22:54:00.383Z,6.50
2022-11-22T22:56:28.932Z,7.95
2022-11-22T22:58:56.396Z,8.05
2022-11-22T23:01:25.292Z,10.07
2022-11-22T23:03:54.400Z,11.30
2022-11-22T23:06:22.218Z,10.93
2022-11-22T23:08:50.239Z,5.82
2022-11-22T23:11:18.603Z,10.85
2022-11-22T23:13:45.335Z,8.15
2022-11-22T23:16:13.383Z,7.68
2022-11-22T23:18:41.911Z,9.63
2022-11-22T23:21:11.691Z,9.48
2022-11-22T23:23:38.162Z,10.00
2022-11-22T23:26:07.385Z,7.05
2022-11-22T23:28:33.836Z,10.73
2022-11-22T23:31:08.396Z,7.45
2022-11-22T23:33:34.924Z,4.38
2022-11-22T23:36:03.653Z,10.23
2022-11-22T23:38:30.124Z,10.32
2022-11-22T23:40:56.507Z,7.28
2022-11-22T23:43:22.969Z,7.45
2022-11-22T23:45:49.386Z,9.15
2022-11-22T23:48:15.863Z,10.07
2022-11-22T23:50:42.270Z,8.02
2022-11-22T23:53:08.941Z,8.10
2022-11-22T23:55:35.381Z,8.23
2022-11-22T23:58:01.802Z,8.15
